Time;durP1;ratioP1;P1;durP2;ratioP2;P2;SDS_P1;SDS_P2;PMS_P1;PMS_P2;Temp;Humidity;BMP_temperature;BMP_pressure;BME280_temperature;BME280_humidity;BME280_pressure;Samples;Min_cycle;Max_cycle;Signal;HPM_P1;HPM_P2
2022/06/27 00:03:40;;;;;;;3.67;3.38;;;;;;;20.47;64.51;96760.06;9959949;29;20055;-56
2022/06/27 00:09:00;;;;;;;8.82;3.90;;;;;;;20.46;64.41;96753.81;9970621;29;20065;-55
2022/06/27 00:14:19;;;;;;;3.70;3.40;;;;;;;20.45;64.24;96757.69;9964702;29;20138;-55
2022/06/27 00:19:38;;;;;;;3.88;3.58;;;;;;;20.47;64.43;96766.25;9966831;29;20050;-55
2022/06/27 00:24:57;;;;;;;3.90;3.60;;;;;;;20.46;64.42;96759.25;9972516;29;20054;-55
2022/06/27 00:30:17;;;;;;;3.90;3.60;;;;;;;20.45;64.38;96763.09;9976630;29;20054;-55
2022/06/27 00:35:37;;;;;;;3.72;3.50;;;;;;;20.44;64.32;96750.66;9962579;29;20379;-55
2022/06/27 00:40:57;;;;;;;3.85;3.55;;;;;;;20.45;64.36;96754.19;9976620;29;20065;-55
2022/06/27 00:46:17;;;;;;;3.72;3.53;;;;;;;20.45;64.24;96759.59;9970028;29;20435;-56
2022/06/27 00:51:37;;;;;;;3.58;3.38;;;;;;;20.44;64.24;96756.06;9960682;29;20059;-55
2022/06/27 00:56:57;;;;;;;3.70;3.40;;;;;;;20.44;64.30;96755.28;9969976;29;20055;-55
2022/06/27 01:02:16;;;;;;;4.00;3.70;;;;;;;20.42;64.24;96752.91;9980805;29;20088;-56
2022/06/27 01:07:37;;;;;;;3.88;3.53;;;;;;;20.43;64.24;96751.03;9974829;29;20049;-56
2022/06/27 01:12:57;;;;;;;4.30;3.90;;;;;;;20.43;64.26;96753.72;9957596;29;20062;-56
2022/06/27 01:18:17;;;;;;;3.88;3.47;;;;;;;20.42;64.38;96746.72;9978693;29;20054;-54
2022/06/27 01:23:37;;;;;;;3.78;3.47;;;;;;;20.42;64.25;96730.47;9967476;29;20066;-56
2022/06/27 01:28:57;;;;;;;4.30;3.90;;;;;;;20.41;64.24;96728.91;9951731;29;20062;-56
2022/06/27 01:34:17;;;;;;;4.53;4.22;;;;;;;20.42;64.28;96730.47;9951825;29;20098;-56
2022/06/27 01:39:38;;;;;;;4.32;4.03;;;;;;;20.41;64.27;96723.50;9969093;29;20062;-56
2022/06/27 01:44:57;;;;;;;4.05;3.78;;;;;;;20.40;64.22;96722.69;9983666;29;20058;-55
2022/06/27 01:50:20;;;;;;;4.80;4.00;;;;;;;20.41;64.24;96710.75;9979917;29;20426;-55
2022/06/27 01:55:42;;;;;;;4.07;3.78;;;;;;;20.41;64.19;96713.47;9961670;29;20058;-56
2022/06/27 02:01:04;;;;;;;3.97;3.67;;;;;;;20.41;64.02;96709.97;9969204;29;20066;-56
2022/06/27 02:06:25;;;;;;;3.88;3.67;;;;;;;20.40;63.92;96705.66;9960787;29;20059;-56
2022/06/27 02:11:46;;;;;;;3.83;3.53;;;;;;;20.40;63.95;96705.66;9963077;29;20546;-56
2022/06/27 02:17:08;;;;;;;4.10;3.70;;;;;;;20.40;63.82;96711.09;9967417;29;20058;-56
2022/06/27 02:22:29;;;;;;;3.65;3.40;;;;;;;20.39;63.79;96710.28;9967157;29;20071;-55
2022/06/27 02:27:49;;;;;;;4.28;3.88;;;;;;;20.39;63.85;96725.75;9961145;29;20070;-55
2022/06/27 02:33:08;;;;;;;3.58;3.28;;;;;;;20.39;63.64;96731.16;9972581;29;20522;-55
2022/06/27 02:38:27;;;;;;;3.72;3.45;;;;;;;20.39;63.64;96731.16;9969729;29;20503;-56
2022/06/27 02:43:52;;;;;;;3.65;3.35;;;;;;;20.37;63.60;96733.41;9957304;29;20063;-55
2022/06/27 02:49:12;;;;;;;3.70;3.40;;;;;;;20.37;63.57;96734.19;9956459;29;20125;-55
2022/06/27 02:54:38;;;;;;;3.60;3.30;;;;;;;20.37;63.44;96738.81;9957313;29;20062;-56
2022/06/27 03:00:09;;;;;;;3.40;3.20;;;;;;;20.35;63.44;96737.22;9950821;29;20083;-55
2022/06/27 03:05:29;;;;;;;3.80;3.50;;;;;;;20.37;63.37;96728.00;9956757;29;20579;-56
2022/06/27 03:10:49;;;;;;;3.70;3.25;;;;;;;20.35;63.62;96723.69;9965045;29;20668;-56
2022/06/27 03:16:09;;;;;;;3.80;3.50;;;;;;;20.36;63.35;96719.06;9959250;29;20066;-56
2022/06/27 03:21:29;;;;;;;3.85;3.40;;;;;;;20.35;63.16;96718.28;9978765;29;20050;-55
2022/06/27 03:26:54;;;;;;;3.35;3.00;;;;;;;20.34;63.18;96705.06;9951922;29;20070;-55
2022/06/27 03:32:13;;;;;;;3.72;3.38;;;;;;;20.36;63.21;96697.41;9940530;29;20054;-56
2022/06/27 03:37:34;;;;;;;3.30;3.10;;;;;;;20.35;63.11;96714.78;9957081;29;20402;-55
2022/06/27 03:42:53;;;;;;;3.30;3.10;;;;;;;20.35;63.07;96733.72;9974501;29;20059;-55
2022/06/27 03:49:59;;;;;;;3.75;3.45;;;;;;;20.33;62.96;96734.06;9968882;29;20070;-56
2022/06/27 03:54:28;;;;;;;3.40;3.20;;;;;;;20.34;62.93;96732.13;9910391;29;20624;-56
2022/06/27 03:59:48;;;;;;;3.35;3.13;;;;;;;20.32;62.91;96729.75;9944962;29;20093;-56
2022/06/27 04:05:08;;;;;;;3.10;2.90;;;;;;;20.37;62.86;96736.91;9955851;29;20066;-57
2022/06/27 04:10:28;;;;;;;3.95;3.28;;;;;;;20.39;62.91;96723.81;9948652;29;20067;-56
2022/06/27 04:15:47;;;;;;;3.90;3.22;;;;;;;20.38;62.94;96724.16;9976597;29;20050;-56
2022/06/27 04:21:16;;;;;;;3.30;3.10;;;;;;;20.38;63.08;96726.84;9955419;29;20062;-56
2022/06/27 04:26:46;;;;;;;3.30;3.00;;;;;;;20.39;63.21;96720.34;9968945;29;20548;-56
2022/06/27 04:32:07;;;;;;;4.10;3.22;;;;;;;20.45;63.19;96719.00;9946747;29;20061;-57
2022/06/27 04:37:27;;;;;;;3.40;3.10;;;;;;;20.48;63.42;96719.13;9964061;29;20050;-54
2022/06/27 04:43:19;;;;;;;4.65;3.50;;;;;;;20.51;63.61;96723.09;9943295;29;20560;-56
2022/06/27 04:48:39;;;;;;;6.75;3.22;;;;;;;20.53;63.67;96718.91;9966322;29;20379;-55
2022/06/27 04:53:59;;;;;;;4.10;3.03;;;;;;;20.53;63.86;96720.84;9962052;29;20085;-55
2022/06/27 04:59:21;;;;;;;7.95;2.90;;;;;;;20.53;63.86;96726.25;9949748;29;20066;-56
2022/06/27 05:04:45;;;;;;;4.65;3.03;;;;;;;20.53;63.93;96731.66;9976976;29;20563;-57
2022/06/27 05:10:06;;;;;;;10.32;3.47;;;;;;;20.53;63.94;96728.97;9951300;29;20063;-57
2022/06/27 05:15:26;;;;;;;12.10;4.85;;;;;;;20.52;63.95;96724.66;9953216;29;20061;-57
2022/06/27 05:20:45;;;;;;;9.27;5.03;;;;;;;20.52;63.87;96730.06;9966920;29;20050;-57
2022/06/27 05:26:05;;;;;;;11.40;5.63;;;;;;;20.50;63.90;96718.78;9964052;29;20058;-57
2022/06/27 05:31:25;;;;;;;9.60;4.75;;;;;;;20.49;63.89;96709.88;9958851;29;20054;-56
2022/06/27 05:36:45;;;;;;;7.32;4.45;;;;;;;20.50;63.94;96705.25;9955491;29;20070;-57
2022/06/27 05:42:05;;;;;;;6.55;4.18;;;;;;;20.49;63.85;96719.94;9954457;29;20407;-57
2022/06/27 05:47:26;;;;;;;7.57;4.05;;;;;;;20.47;63.73;96724.88;9955460;29;20062;-56
2022/06/27 05:52:59;;;;;;;7.35;4.30;;;;;;;20.48;63.78;96726.44;9956949;29;20061;-57
2022/06/27 05:58:18;;;;;;;7.72;4.30;;;;;;;20.47;63.73;96735.69;9957661;29;20115;-57
2022/06/27 06:03:38;;;;;;;8.23;4.47;;;;;;;20.46;63.71;96737.59;9970367;29;20055;-57
2022/06/27 06:09:01;;;;;;;6.40;4.10;;;;;;;20.47;63.75;96733.00;9965644;29;20145;-57
2022/06/27 06:14:21;;;;;;;5.22;3.88;;;;;;;20.46;63.67;96734.88;9954149;29;20062;-56
2022/06/27 06:19:43;;;;;;;6.22;4.07;;;;;;;20.47;63.66;96733.78;9963785;29;20062;-57
2022/06/27 06:25:04;;;;;;;6.50;4.05;;;;;;;20.47;63.67;96727.59;9943794;29;20113;-56
2022/06/27 06:30:24;;;;;;;5.18;3.78;;;;;;;20.47;63.64;96735.69;9968288;29;20062;-57
2022/06/27 06:35:44;;;;;;;5.38;3.75;;;;;;;20.46;63.65;96732.19;9960038;29;20062;-57
2022/06/27 06:41:04;;;;;;;5.35;3.97;;;;;;;20.46;63.70;96732.19;9980574;29;20543;-57
2022/06/27 06:46:24;;;;;;;6.80;4.00;;;;;;;20.47;63.64;96731.06;9986202;29;20046;-56
2022/06/27 06:51:56;;;;;;;5.03;3.75;;;;;;;20.45;63.69;96725.19;9970817;29;20058;-57
2022/06/27 06:57:16;;;;;;;7.95;4.30;;;;;;;20.47;63.91;96733.78;9991111;29;20058;-57
2022/06/27 07:02:35;;;;;;;4.90;3.85;;;;;;;20.47;63.91;96733.78;9979033;29;20058;-57
2022/06/27 07:07:56;;;;;;;7.05;4.43;;;;;;;20.41;63.51;96731.63;9972422;29;20521;-56
2022/06/27 07:13:15;;;;;;;5.22;3.80;;;;;;;20.42;63.94;96725.06;9978644;29;20054;-57
2022/06/27 07:18:37;;;;;;;5.53;4.20;;;;;;;20.43;64.19;96718.53;9989998;29;20131;-57
2022/06/27 07:23:57;;;;;;;5.53;4.00;;;;;;;20.44;64.47;96717.41;9980855;29;20065;-56
2022/06/27 07:29:17;;;;;;;5.35;4.18;;;;;;;20.44;63.68;96722.81;9949882;29;20483;-57
2022/06/27 07:34:37;;;;;;;6.20;3.88;;;;;;;20.42;64.52;96725.06;9966113;29;20769;-57
2022/06/27 07:39:56;;;;;;;5.65;3.85;;;;;;;20.42;64.61;96736.69;9982745;29;20055;-56
2022/06/27 07:45:18;;;;;;;5.22;4.03;;;;;;;20.44;64.69;96744.47;9975126;29;20426;-57
2022/06/27 07:50:38;;;;;;;7.97;3.97;;;;;;;20.44;64.32;96750.66;9964586;29;20070;-57
2022/06/27 07:56:03;;;;;;;4.60;3.55;;;;;;;20.42;64.28;96746.72;9978819;29;20679;-57
2022/06/27 08:01:23;;;;;;;5.50;3.97;;;;;;;20.43;64.64;96748.31;9964225;29;20562;-56
2022/06/27 08:06:43;;;;;;;5.25;3.85;;;;;;;20.44;64.76;96734.44;9966830;29;20058;-57
2022/06/27 08:12:03;;;;;;;5.30;3.88;;;;;;;20.45;64.86;96736.03;9966060;29;20526;-57
2022/06/27 08:17:24;;;;;;;6.93;3.60;;;;;;;20.43;64.35;96749.09;9988489;29;20062;-57
2022/06/27 08:22:45;;;;;;;4.50;4.00;;;;;;;20.43;65.12;96738.28;9960483;29;20061;-57
2022/06/27 08:28:05;;;;;;;4.57;3.70;;;;;;;20.43;65.11;96740.97;9954763;29;20070;-57
2022/06/27 08:33:24;;;;;;;4.30;3.50;;;;;;;20.44;65.03;96731.72;9973265;29;20089;-57
2022/06/27 08:38:50;;;;;;;4.65;3.65;;;;;;;20.42;63.99;96742.09;9970515;29;20063;-57
2022/06/27 08:44:10;;;;;;;4.38;3.72;;;;;;;20.42;65.06;96744.00;9970674;29;20454;-56
2022/06/27 08:49:32;;;;;;;4.10;3.42;;;;;;;20.42;65.06;96744.78;9980821;29;20062;-56
2022/06/27 08:54:53;;;;;;;6.68;3.33;;;;;;;20.44;65.07;96739.06;9982402;29;20384;-56
2022/06/27 09:00:15;;;;;;;5.88;3.70;;;;;;;20.41;64.58;96740.53;9968934;29;20092;-56
2022/06/27 09:05:34;;;;;;;4.03;3.42;;;;;;;20.42;65.12;96736.69;9979764;29;20433;-57
2022/06/27 09:10:56;;;;;;;4.55;3.50;;;;;;;20.43;65.22;96734.78;9970747;29;20054;-57
2022/06/27 09:16:16;;;;;;;4.57;3.13;;;;;;;20.45;65.18;96727.13;9962970;29;20057;-57
2022/06/27 09:21:36;;;;;;;4.53;3.38;;;;;;;20.42;64.00;96728.56;9961744;29;20065;-56
2022/06/27 09:26:56;;;;;;;3.45;3.13;;;;;;;20.42;64.70;96716.94;9970476;29;20057;-56
2022/06/27 09:32:24;;;;;;;4.25;3.00;;;;;;;20.43;64.72;96722.03;9954636;29;20058;-56
2022/06/27 09:37:54;;;;;;;4.35;3.10;;;;;;;20.43;64.63;96715.84;9983795;29;20055;-56
2022/06/27 09:43:16;;;;;;;2.67;2.40;;;;;;;20.40;62.45;96709.16;9949404;29;20058;-57
2022/06/27 09:48:39;;;;;;;3.35;2.58;;;;;;;20.39;63.48;96715.72;9977072;29;20202;-56
2022/06/27 09:54:00;;;;;;;3.10;2.80;;;;;;;20.41;63.60;96704.56;9946726;29;20490;-57
2022/06/27 09:59:20;;;;;;;2.88;2.60;;;;;;;20.42;63.69;96708.84;9963205;29;20438;-56
2022/06/27 10:04:40;;;;;;;2.65;2.45;;;;;;;20.42;63.75;96706.91;9975079;29;20085;-57
2022/06/27 10:10:00;;;;;;;4.05;2.88;;;;;;;20.38;61.73;96705.22;9942202;29;20087;-56
2022/06/27 10:15:22;;;;;;;2.50;2.30;;;;;;;20.38;62.54;96702.50;9968963;29;20070;-56
2022/06/27 10:20:47;;;;;;;2.65;2.45;;;;;;;20.39;62.73;96696.78;9972273;29;20065;-56
2022/06/27 10:26:07;;;;;;;2.50;2.30;;;;;;;20.37;60.38;96695.53;9973621;29;20054;-56
2022/06/27 10:31:44;;;;;;;2.45;2.25;;;;;;;20.37;62.05;96695.53;9955217;29;20062;-56
2022/06/27 10:37:24;;;;;;;5.47;3.42;;;;;;;20.39;62.54;96704.09;9961010;29;20062;-56
2022/06/27 10:42:52;;;;;;;20.35;8.13;;;;;;;20.39;61.68;96704.09;9977226;29;20057;-56
2022/06/27 10:48:33;;;;;;;21.83;10.30;;;;;;;20.38;63.09;96688.97;9976332;29;20070;-56
2022/06/27 10:53:59;;;;;;;24.58;10.40;;;;;;;20.40;63.45;96681.31;9957177;29;20059;-55
2022/06/27 10:59:18;;;;;;;22.05;10.35;;;;;;;20.42;63.68;96679.84;9980739;29;20058;-56
2022/06/27 11:04:38;;;;;;;20.63;8.73;;;;;;;20.38;62.21;96670.03;9983749;29;20062;-56
2022/06/27 11:09:57;;;;;;;18.92;8.75;;;;;;;20.38;63.09;96670.81;9976214;29;20884;-56
2022/06/27 11:15:17;;;;;;;15.77;6.97;;;;;;;20.39;63.33;96668.94;9959249;29;20417;-56
2022/06/27 11:20:36;;;;;;;14.60;7.13;;;;;;;20.41;63.44;96669.38;9982335;29;20046;-56
2022/06/27 11:25:57;;;;;;;12.68;6.30;;;;;;;20.40;63.11;96663.16;9962009;29;20055;-57
2022/06/27 11:36:56;;;;;;;13.02;5.57;;;;;;;20.40;63.32;96663.16;9971575;29;20070;-56
2022/06/27 11:42:15;;;;;;;10.65;4.97;;;;;;;20.42;63.50;96662.84;9951367;29;20091;-57
2022/06/27 11:47:37;;;;;;;8.77;4.90;;;;;;;20.38;62.25;96660.00;9970071;29;20050;-57
2022/06/27 11:53:01;;;;;;;9.57;4.93;;;;;;;20.38;62.92;96651.88;9967899;29;20065;-56
2022/06/27 11:58:21;;;;;;;7.38;4.20;;;;;;;20.40;63.15;96651.56;9974014;29;20054;-56
2022/06/27 12:03:40;;;;;;;8.32;4.22;;;;;;;20.41;63.25;96647.75;9972074;29;20415;-56
2022/06/27 12:09:01;;;;;;;6.13;3.60;;;;;;;20.38;62.35;96641.06;9959454;29;20066;-57
2022/06/27 12:14:21;;;;;;;6.78;3.75;;;;;;;20.39;62.96;96634.53;9954156;29;20062;-57
2022/06/27 12:19:41;;;;;;;6.00;3.33;;;;;;;20.38;63.06;96638.34;9984562;29;20051;-57
2022/06/27 12:25:01;;;;;;;4.75;3.45;;;;;;;20.40;63.29;96643.44;9972967;29;20058;-57
2022/06/27 12:30:20;;;;;;;4.70;3.22;;;;;;;20.40;62.73;96632.63;9957691;29;20457;-57
2022/06/27 12:35:40;;;;;;;5.45;2.78;;;;;;;20.40;62.98;96619.88;9974108;29;20492;-56
2022/06/27 12:41:11;;;;;;;4.75;3.20;;;;;;;20.39;61.85;96622.94;9993467;29;20050;-57
2022/06/27 12:46:32;;;;;;;3.40;2.47;;;;;;;20.37;62.42;96628.66;9971551;29;20395;-56
2022/06/27 12:51:51;;;;;;;4.28;2.55;;;;;;;20.37;62.81;96623.25;9978456;29;20062;-56
2022/06/27 12:57:13;;;;;;;3.83;2.63;;;;;;;20.39;63.00;96623.72;9995350;29;20704;-56
2022/06/27 13:02:33;;;;;;;3.58;2.63;;;;;;;20.37;61.49;96625.19;9977663;29;20551;-57
2022/06/27 13:07:52;;;;;;;3.58;2.42;;;;;;;20.37;62.62;96633.31;9967922;29;20736;-57
2022/06/27 13:13:11;;;;;;;3.13;2.47;;;;;;;20.38;62.71;96627.53;9972860;29;20058;-56
2022/06/27 13:18:31;;;;;;;2.50;1.95;;;;;;;20.37;61.14;96636.78;9972024;29;20205;-57
2022/06/27 13:23:51;;;;;;;3.03;2.13;;;;;;;20.38;62.53;96643.78;9961605;29;20461;-57
2022/06/27 13:29:11;;;;;;;2.67;2.17;;;;;;;20.39;62.73;96642.66;9972818;29;20084;-56
2022/06/27 13:34:30;;;;;;;2.47;2.20;;;;;;;20.41;62.82;96643.13;9976213;29;20046;-56
2022/06/27 13:39:50;;;;;;;3.78;1.83;;;;;;;20.40;61.37;96646.16;9960579;29;20671;-56
2022/06/27 13:45:10;;;;;;;3.90;2.28;;;;;;;20.40;61.98;96635.31;9960364;29;20055;-56
2022/06/27 13:50:29;;;;;;;3.33;2.00;;;;;;;20.40;61.99;96646.16;9970311;29;20058;-56
2022/06/27 13:55:49;;;;;;;3.67;2.30;;;;;;;20.41;62.22;96647.75;9952814;29;20055;-57
2022/06/27 14:01:08;;;;;;;3.13;2.00;;;;;;;20.42;62.42;96646.59;9958554;29;20062;-55
2022/06/27 14:12:07;;;;;;;2.35;1.88;;;;;;;20.43;63.08;96646.28;9953066;29;20446;-57
2022/06/27 14:17:26;;;;;;;4.10;1.90;;;;;;;20.45;63.28;96637.84;9955660;29;20582;-58
2022/06/27 14:22:46;;;;;;;2.25;1.90;;;;;;;20.47;63.39;96635.56;9944324;29;20074;-55
2022/06/27 14:28:05;;;;;;;4.22;1.85;;;;;;;20.48;63.65;96631.72;9956771;29;20059;-66
2022/06/27 14:33:25;;;;;;;2.97;1.88;;;;;;;20.49;63.70;96636.03;9970301;29;20132;-61
2022/06/27 14:38:44;;;;;;;3.30;2.15;;;;;;;20.50;63.83;96618.66;9960464;29;20107;-56
2022/06/27 14:44:04;;;;;;;2.15;1.90;;;;;;;20.51;63.89;96617.56;9960373;29;20594;-59
2022/06/27 14:49:23;;;;;;;2.22;1.90;;;;;;;20.52;63.92;96617.22;9973859;29;20106;-56
2022/06/27 14:54:43;;;;;;;3.17;1.90;;;;;;;20.53;63.92;96612.59;9954511;29;20054;-59
2022/06/27 15:00:03;;;;;;;3.05;2.00;;;;;;;20.52;63.96;96605.59;9961579;29;20062;-58
2022/06/27 15:05:24;;;;;;;5.93;2.03;;;;;;;20.55;64.42;96600.28;9955864;29;20403;-55
2022/06/27 15:16:22;;;;;;;2.42;2.25;;;;;;;20.62;65.38;96594.38;9951035;29;20454;-59
2022/06/27 15:21:43;;;;;;;3.40;2.45;;;;;;;20.61;65.55;96603.63;9965547;29;20057;-60
2022/06/27 15:27:02;;;;;;;2.78;2.17;;;;;;;20.62;65.83;96602.50;9958981;29;20131;-58
2022/06/27 15:32:22;;;;;;;2.33;2.10;;;;;;;20.61;65.80;96598.19;9954217;29;20058;-58
2022/06/27 15:37:41;;;;;;;2.28;2.08;;;;;;;20.59;65.60;96595.03;9975459;29;20054;-58
2022/06/27 15:43:00;;;;;;;2.45;2.25;;;;;;;20.60;65.42;96591.22;9958965;29;20062;-58
2022/06/27 15:48:20;;;;;;;2.50;2.30;;;;;;;20.62;65.82;96594.38;9954067;29;20066;-58
2022/06/27 15:53:40;;;;;;;4.30;2.30;;;;;;;20.61;65.66;96586.59;9964336;29;20046;-58
2022/06/27 15:58:59;;;;;;;2.20;2.00;;;;;;;20.60;65.59;96591.22;9962051;29;20466;-58
2022/06/27 16:04:19;;;;;;;2.25;2.08;;;;;;;20.61;65.53;96589.28;9962964;29;20115;-59
2022/06/27 16:09:39;;;;;;;2.33;2.10;;;;;;;20.62;65.84;96593.56;9963478;29;20062;-57
2022/06/27 16:14:58;;;;;;;3.83;1.85;;;;;;;20.64;65.89;96602.97;9955429;29;20059;-59
2022/06/27 16:20:17;;;;;;;2.28;1.83;;;;;;;20.65;66.17;96601.03;9957661;29;20058;-58
2022/06/27 16:25:37;;;;;;;3.97;2.28;;;;;;;20.65;66.21;96593.69;9959693;29;20058;-56
2022/06/27 16:36:35;;;;;;;2.58;1.90;;;;;;;20.66;66.13;96595.28;9964108;29;20059;-56
2022/06/27 16:47:32;;;;;;;2.30;1.88;;;;;;;20.66;66.19;96581.75;9970221;29;20132;-59
2022/06/27 16:52:52;;;;;;;2.00;1.80;;;;;;;20.66;66.25;96581.75;9969584;29;22185;-59
2022/06/27 16:58:12;;;;;;;2.03;1.88;;;;;;;20.69;66.29;96588.41;9957168;29;20487;-55
2022/06/27 17:03:32;;;;;;;2.30;2.10;;;;;;;20.68;66.38;96601.16;9954989;29;20108;-59
2022/06/27 17:08:53;;;;;;;2.65;1.70;;;;;;;20.68;66.31;96611.97;9960189;29;20062;-60
2022/06/27 17:14:12;;;;;;;2.47;2.00;;;;;;;20.69;66.34;96623.59;9971052;29;20113;-61
2022/06/27 17:19:31;;;;;;;2.45;1.98;;;;;;;20.68;66.29;96614.69;9982987;29;20070;-61
2022/06/27 17:24:51;;;;;;;2.75;1.85;;;;;;;20.68;66.23;96609.28;9973625;29;20519;-60
2022/06/27 17:30:10;;;;;;;4.20;2.00;;;;;;;20.68;66.18;96625.50;9965352;29;20411;-59
2022/06/27 17:35:31;;;;;;;2.13;1.90;;;;;;;20.69;66.32;96627.09;9973045;29;20119;-58
2022/06/27 17:40:50;;;;;;;2.15;1.80;;;;;;;20.68;66.19;96624.69;9979152;29;20067;-57
2022/06/27 17:46:10;;;;;;;2.75;1.90;;;;;;;20.69;66.22;96637.13;9957917;29;20055;-57
2022/06/27 17:51:29;;;;;;;1.88;1.73;;;;;;;20.68;66.24;96641.75;9962962;29;20059;-58
2022/06/27 17:56:48;;;;;;;2.17;1.85;;;;;;;20.71;66.39;96640.28;9962058;29;20499;-58
2022/06/27 18:02:08;;;;;;;2.67;2.00;;;;;;;20.70;66.43;96644.91;9952209;29;20066;-56
2022/06/27 18:07:28;;;;;;;2.83;1.92;;;;;;;20.70;66.53;96663.88;9969435;29;20438;-55
2022/06/27 18:12:47;;;;;;;2.38;1.73;;;;;;;20.72;66.44;96675.16;9951086;29;20523;-54
2022/06/27 18:18:09;;;;;;;2.22;1.80;;;;;;;20.72;66.47;96680.56;9960421;29;20065;-56
2022/06/27 18:23:29;;;;;;;2.03;1.77;;;;;;;20.73;66.58;96675.94;9970055;29;20067;-56
2022/06/27 18:28:49;;;;;;;2.38;1.80;;;;;;;20.72;66.58;96672.44;9979691;29;20047;-57
2022/06/27 18:34:09;;;;;;;2.38;1.90;;;;;;;20.73;66.88;96663.19;9962442;29;20090;-54
2022/06/27 18:39:29;;;;;;;3.22;2.08;;;;;;;20.74;67.00;96677.53;9953173;29;20138;-57
2022/06/27 18:44:49;;;;;;;3.90;2.20;;;;;;;20.76;67.17;96688.00;9953906;29;20131;-52
2022/06/27 18:50:09;;;;;;;3.42;2.15;;;;;;;20.76;67.43;96685.28;9976212;29;20096;-52
2022/06/27 18:55:28;;;;;;;3.40;2.58;;;;;;;20.76;67.45;96688.81;9960631;29;20058;-56
2022/06/27 19:00:48;;;;;;;4.68;2.17;;;;;;;20.76;67.35;96686.09;9961338;29;20065;-55
2022/06/27 19:06:11;;;;;;;5.78;2.53;;;;;;;20.76;67.30;96691.53;9956937;29;20599;-57
2022/06/27 19:11:32;;;;;;;4.10;2.05;;;;;;;20.75;67.36;96700.75;9958582;29;20059;-56
2022/06/27 19:16:51;;;;;;;3.50;2.20;;;;;;;20.78;67.52;96704.69;9949656;29;20096;-59
2022/06/27 19:22:11;;;;;;;3.90;2.38;;;;;;;20.78;67.63;96704.69;9965405;29;20059;-56
2022/06/27 19:27:33;;;;;;;4.03;2.58;;;;;;;20.78;67.80;96710.13;9974705;29;20059;-55
2022/06/27 19:32:52;;;;;;;4.25;2.63;;;;;;;20.78;67.94;96705.50;9956651;29;20675;-57
2022/06/27 19:38:13;;;;;;;4.15;2.33;;;;;;;20.80;67.73;96754.69;9952010;29;20726;-58
2022/06/27 19:43:33;;;;;;;4.97;2.75;;;;;;;20.77;67.74;96768.88;9954951;29;20196;-58
2022/06/27 19:48:53;;;;;;;2.88;2.35;;;;;;;20.79;67.63;96795.63;9952109;29;20503;-57
2022/06/27 19:54:13;;;;;;;2.92;2.63;;;;;;;20.78;67.69;96789.44;9953161;29;20066;-58
2022/06/27 19:59:33;;;;;;;4.72;2.70;;;;;;;20.78;67.54;96758.84;9963976;29;20054;-55
2022/06/27 20:04:52;;;;;;;3.50;2.95;;;;;;;20.80;67.67;96748.50;9976751;29;20073;-57
2022/06/27 20:10:19;;;;;;;3.38;2.60;;;;;;;20.80;67.50;96743.09;9962008;29;20087;-57
2022/06/27 20:15:39;;;;;;;3.65;2.92;;;;;;;20.84;68.49;96725.03;9958703;29;20062;-56
2022/06/27 20:20:58;;;;;;;3.80;3.03;;;;;;;20.83;68.44;96709.91;9975040;29;20107;-59
2022/06/27 20:26:18;;;;;;;3.20;2.90;;;;;;;20.82;68.37;96728.09;9971316;29;20069;-60
2022/06/27 20:31:37;;;;;;;5.55;3.13;;;;;;;20.81;68.27;96701.34;9964752;29;20059;-60
2022/06/27 20:36:59;;;;;;;7.45;3.50;;;;;;;20.82;68.91;96657.69;9958317;29;20069;-59
2022/06/27 20:42:19;;;;;;;3.70;3.38;;;;;;;20.82;69.47;96636.03;9973765;29;20059;-57
2022/06/27 20:47:40;;;;;;;4.50;3.30;;;;;;;20.83;69.29;96620.56;9962228;29;20054;-57
2022/06/27 20:52:59;;;;;;;3.60;3.10;;;;;;;20.84;69.01;96654.66;9953061;29;20360;-57
2022/06/27 20:58:19;;;;;;;5.75;3.40;;;;;;;20.83;68.88;96661.97;9960182;29;20054;-58
2022/06/27 21:03:39;;;;;;;4.28;2.90;;;;;;;20.83;68.65;96718.81;9965486;29;20062;-58
2022/06/27 21:11:47;;;;;;;3.65;3.03;;;;;;;20.83;68.87;96739.69;9950730;29;20062;-57
2022/06/27 21:14:52;;;;;;;4.68;3.05;;;;;;;20.82;68.54;96771.41;9951938;29;20059;-57
2022/06/27 21:20:12;;;;;;;3.25;2.88;;;;;;;20.84;68.30;96781.91;9946125;29;20051;-58
2022/06/27 21:25:32;;;;;;;4.93;3.20;;;;;;;20.83;68.42;96783.00;9955078;29;20473;-58
2022/06/27 21:30:51;;;;;;;3.83;3.00;;;;;;;20.84;68.21;96779.19;9955586;29;20531;-57
2022/06/27 21:36:11;;;;;;;4.28;2.95;;;;;;;20.84;67.92;96841.47;9964265;29;20063;-57
2022/06/27 21:41:32;;;;;;;4.78;3.20;;;;;;;20.84;68.20;96871.25;9962869;29;20050;-57
2022/06/27 21:46:52;;;;;;;3.22;2.70;;;;;;;20.83;68.16;96912.97;9969856;29;20107;-57
2022/06/27 21:57:53;;;;;;;2.80;2.50;;;;;;;20.83;67.88;96908.34;9962772;29;20063;-58
2022/06/27 22:03:14;;;;;;;3.67;2.72;;;;;;;20.83;67.83;96923.81;9961311;29;20414;-57
2022/06/27 22:08:34;;;;;;;4.38;2.88;;;;;;;20.82;67.94;96931.16;9962146;29;20638;-57
2022/06/27 22:13:53;;;;;;;3.03;2.70;;;;;;;20.83;67.79;96935.44;9960788;29;20062;-57
2022/06/27 22:19:13;;;;;;;3.50;3.00;;;;;;;20.83;67.66;96983.38;9989663;29;20468;-58
2022/06/27 22:24:32;;;;;;;5.10;2.80;;;;;;;20.82;67.76;97017.00;9968749;29;20479;-57
2022/06/27 22:29:53;;;;;;;3.45;2.78;;;;;;;20.83;67.62;97021.28;9963851;29;20058;-57
2022/06/27 22:35:13;;;;;;;3.47;2.80;;;;;;;20.83;67.63;97005.81;9982081;29;20674;-57
2022/06/27 22:40:33;;;;;;;3.58;2.70;;;;;;;20.83;67.54;96999.63;9972140;29;20051;-58
2022/06/27 22:45:52;;;;;;;5.20;2.70;;;;;;;20.83;67.49;97015.88;9980416;29;20061;-57
